Aviation Digital Data Service (ADDS)

Output produced by METARs form (1505 UTC 29 May 2017)
found at http://www.aviationweather.gov/adds/metars/
 
METAR text: KCOU 291454Z 21007KT 10SM FEW100 24/13 A2995 RMK AO2 SLP136 T02390133 53006
Conditions at: KCOU (COLUMBIA , MO, US) observed 1454 UTC 29 May 2017
Temperature: 23.9°C (75°F)
Dewpoint: 13.3°C (56°F) [RH = 51%]
Pressure (altimeter): 29.95 inches Hg (1014.3 mb)
[Sea-level pressure: 1013.6 mb]
Winds: from the SSW (210 degrees) at 8 MPH (7 knots; 3.6 m/s)
Visibility: 10 or more miles (16+ km)
Ceiling: at least 12,000 feet AGL
Clouds: few clouds at 10000 feet AGL
Weather: no significant weather observed at this time